Terminal Aerodrome Forecast
Issued by NWS

Home | Current Version | Previous Version | Text Only | Print | Product List | Glossary On
Versions: 1 2 3 4 5 6 7 8 9 10 11 12 13 14 15 16 17 18 19 20 21 22 23
000
FTUS43 KDLH 271100 RRA
TAFHYR
TAF
KHYR 271158Z 2712/2812 VRB04KT P6SM SKC
     FM280600 18006KT P6SM SCT040 OVC100
     FM281000 14007KT 6SM -SN OVC025=

USA.gov is the U.S. government's official web portal to all federal, state and local government web resources and services.